Time;durP1;ratioP1;P1;durP2;ratioP2;P2;SDS_P1;SDS_P2;PMS_P1;PMS_P2;Temp;Humidity;BMP_temperature;BMP_pressure;BME280_temperature;BME280_humidity;BME280_pressure;Samples;Min_cycle;Max_cycle;Signal;HPM_P1;HPM_P2
2023/12/27 00:01:17;;;;;;;0.00;0.00;;;;;;;10.31;59.75;100042.50;5301629;27;22480;-93
2023/12/27 00:03:43;;;;;;;0.57;0.45;;;;;;;10.38;59.75;100055.31;5319885;26;20411;-93
2023/12/27 00:06:08;;;;;;;0.00;0.00;;;;;;;10.19;59.75;100043.66;5301607;27;20468;-93
2023/12/27 00:08:35;;;;;;;0.00;0.00;;;;;;;10.13;59.74;100057.66;5319888;27;20116;-94
2023/12/27 00:11:01;;;;;;;0.00;0.00;;;;;;;10.23;59.74;100047.06;5320626;26;20065;-92
2023/12/27 00:13:27;;;;;;;0.00;0.00;;;;;;;10.25;59.75;100063.50;5322401;27;20413;-93
2023/12/27 00:15:52;;;;;;;0.55;0.52;;;;;;;10.14;59.74;100056.78;5301318;27;23484;-94
2023/12/27 00:18:17;;;;;;;0.00;0.00;;;;;;;10.14;59.74;100064.56;5320277;27;20096;-93
2023/12/27 00:20:44;;;;;;;1.10;1.00;;;;;;;9.94;59.74;100066.84;5320351;27;20104;-94
2023/12/27 00:23:09;;;;;;;0.00;0.00;;;;;;;9.99;59.73;100072.78;5326858;26;20118;-91
2023/12/27 00:25:35;;;;;;;0.00;0.00;;;;;;;9.95;59.73;100068.53;5320801;26;20088;-94
2023/12/27 00:28:00;;;;;;;0.05;0.05;;;;;;;10.02;59.73;100066.63;5322040;27;20605;-93
2023/12/27 00:30:26;;;;;;;0.10;0.10;;;;;;;10.01;59.73;100077.94;5301452;27;20329;-94
2023/12/27 00:32:51;;;;;;;0.00;0.00;;;;;;;9.99;59.73;100067.56;5320341;27;20442;-94
2023/12/27 00:35:16;;;;;;;0.00;0.00;;;;;;;9.97;59.73;100078.91;5320866;27;20072;-92
2023/12/27 00:37:42;;;;;;;0.00;0.00;;;;;;;10.03;59.74;100087.41;5320450;27;20144;-93
2023/12/27 00:40:08;;;;;;;0.00;0.00;;;;;;;10.01;59.73;100078.78;5301658;27;24251;-94
2023/12/27 00:42:33;;;;;;;0.00;0.00;;;;;;;9.98;59.73;100081.47;5320762;27;20071;-95
2023/12/27 00:44:59;;;;;;;0.00;0.00;;;;;;;10.01;59.73;100077.94;5320127;27;20078;-93
2023/12/27 00:47:24;;;;;;;0.00;0.00;;;;;;;10.03;59.74;100087.41;5321507;27;20103;-92
2023/12/27 00:49:49;;;;;;;0.00;0.00;;;;;;;10.04;59.74;100091.72;5322647;27;20104;-93
2023/12/27 00:52:15;;;;;;;0.30;0.30;;;;;;;10.17;59.75;100092.25;5319969;27;20555;-94
2023/12/27 00:54:40;;;;;;;0.00;0.00;;;;;;;10.16;59.74;100093.16;5319885;27;21806;-93
2023/12/27 00:57:06;;;;;;;0.10;0.10;;;;;;;10.09;59.74;100108.06;5321499;26;20114;-94
2023/12/27 00:59:31;;;;;;;0.00;0.00;;;;;;;10.00;59.73;100108.28;5320323;27;20101;-94
2023/12/27 01:01:57;;;;;;;0.00;0.00;;;;;;;10.13;59.74;100107.09;5301770;27;20091;-94
2023/12/27 01:04:22;;;;;;;0.00;0.00;;;;;;;10.04;59.74;100104.72;5301848;27;20127;-93
2023/12/27 01:06:47;;;;;;;0.00;0.00;;;;;;;9.93;59.73;100124.06;5301706;27;20139;-93
2023/12/27 01:09:13;;;;;;;0.00;0.00;;;;;;;10.07;59.73;100128.06;5319919;27;21376;-92
2023/12/27 01:11:38;;;;;;;0.00;0.00;;;;;;;10.08;59.73;100131.50;5302519;27;20120;-93
2023/12/27 01:14:04;;;;;;;0.20;0.20;;;;;;;9.96;59.73;100124.00;5301730;27;20131;-94
2023/12/27 01:16:29;;;;;;;0.00;0.00;;;;;;;10.04;59.74;100132.47;5320096;27;20117;-94
2023/12/27 01:18:55;;;;;;;0.00;0.00;;;;;;;10.03;59.74;100138.56;5302342;27;20084;-93
2023/12/27 01:21:20;;;;;;;0.00;0.00;;;;;;;10.03;59.74;100139.41;5302345;27;20115;-94
2023/12/27 01:23:46;;;;;;;0.00;0.00;;;;;;;10.23;59.75;100148.53;5327609;27;20079;-94
2023/12/27 01:26:11;;;;;;;6.80;0.32;;;;;;;10.20;59.74;100154.63;5304290;27;20091;-93
2023/12/27 01:28:37;;;;;;;0.00;0.00;;;;;;;10.10;59.74;100156.59;5302342;27;25434;-94
2023/12/27 01:31:02;;;;;;;0.00;0.00;;;;;;;10.15;59.74;100159.06;5321285;27;20131;-94
2023/12/27 01:33:28;;;;;;;0.00;0.00;;;;;;;9.92;59.73;100150.94;5320930;27;20071;-93
2023/12/27 01:35:53;;;;;;;0.00;0.00;;;;;;;10.03;59.73;100159.37;5302525;27;20437;-94
2023/12/27 01:38:18;;;;;;;0.00;0.00;;;;;;;10.17;59.75;100170.28;5302282;27;20085;-93
2023/12/27 01:40:50;;;;;;;0.00;0.00;;;;;;;10.24;59.75;100166.72;5320749;27;20849;-95
2023/12/27 01:43:16;;;;;;;0.00;0.00;;;;;;;10.24;59.75;100156.31;5302628;27;20135;-93
2023/12/27 01:45:46;;;;;;;0.00;0.00;;;;;;;10.01;59.73;100156.81;5321420;27;20061;-92
2023/12/27 01:48:12;;;;;;;0.30;0.30;;;;;;;9.93;59.73;100157.84;5321850;27;20109;-94
2023/12/27 01:50:37;;;;;;;0.00;0.00;;;;;;;10.08;59.73;100163.56;5321076;27;20071;-94
2023/12/27 01:53:03;;;;;;;0.08;0.08;;;;;;;10.13;59.74;100148.69;5321699;27;20076;-94
2023/12/27 01:55:30;;;;;;;0.00;0.00;;;;;;;10.02;59.74;100155.91;5321101;27;20064;-96
2023/12/27 01:57:55;;;;;;;0.00;0.00;;;;;;;9.97;59.73;100147.38;5302507;27;20057;-93
2023/12/27 02:00:21;;;;;;;0.00;0.00;;;;;;;9.91;59.72;100144.91;5320560;27;20122;-93
2023/12/27 02:02:46;;;;;;;0.00;0.00;;;;;;;10.01;59.72;100154.22;5301861;27;22319;-94
2023/12/27 02:05:11;;;;;;;0.00;0.00;;;;;;;10.03;59.74;100157.62;5320407;27;22590;-93
2023/12/27 02:07:37;;;;;;;0.00;0.00;;;;;;;10.07;59.74;100153.22;5320467;27;20108;-94
2023/12/27 02:10:03;;;;;;;0.00;0.00;;;;;;;10.02;59.74;100150.72;5321096;27;20080;-94
2023/12/27 02:12:29;;;;;;;0.00;0.00;;;;;;;10.14;59.74;100157.38;5321276;27;20068;-94
2023/12/27 02:14:55;;;;;;;0.00;0.00;;;;;;;10.18;59.75;100155.56;5320587;27;20117;-95
2023/12/27 02:17:21;;;;;;;0.10;0.10;;;;;;;9.95;59.73;100162.16;5321165;26;20364;-94
2023/12/27 02:19:46;;;;;;;0.00;0.00;;;;;;;10.05;59.74;100155.00;5320658;27;20419;-93
2023/12/27 02:22:12;;;;;;;0.00;0.00;;;;;;;9.95;59.73;100164.75;5322716;27;20775;-94
2023/12/27 02:24:37;;;;;;;0.00;0.00;;;;;;;9.93;59.73;100179.50;5307469;27;20077;-94
2023/12/27 02:27:03;;;;;;;0.00;0.00;;;;;;;9.98;59.73;100180.28;5302559;27;20100;-95
2023/12/27 02:29:28;;;;;;;0.00;0.00;;;;;;;9.90;59.73;100170.94;5302240;27;20109;-94
2023/12/27 02:31:54;;;;;;;0.00;0.00;;;;;;;9.97;59.73;100180.34;5320322;27;20084;-94
2023/12/27 02:34:19;;;;;;;0.00;0.00;;;;;;;9.87;59.73;100179.66;5320554;27;20186;-94
2023/12/27 02:36:45;;;;;;;0.00;0.00;;;;;;;9.81;59.73;100185.84;5320892;27;20064;-93
2023/12/27 02:39:10;;;;;;;0.13;0.13;;;;;;;9.82;59.72;100181.50;5320669;27;20107;-94
2023/12/27 02:41:36;;;;;;;0.00;0.00;;;;;;;9.85;59.73;100179.69;5301662;27;26973;-94
2023/12/27 02:44:01;;;;;;;0.00;0.00;;;;;;;9.91;59.73;100175.25;5302294;27;20577;-93
2023/12/27 02:46:31;;;;;;;0.00;0.00;;;;;;;9.94;59.74;100181.25;5320431;27;20093;-93
2023/12/27 02:48:57;;;;;;;0.00;0.00;;;;;;;10.07;59.73;100172.28;5302131;26;20064;-95
2023/12/27 02:51:22;;;;;;;0.00;0.00;;;;;;;10.02;59.73;100184.53;5320569;27;20453;-94
2023/12/27 02:53:49;;;;;;;0.00;0.00;;;;;;;10.06;59.74;100190.50;5320154;27;20170;-94
2023/12/27 02:56:14;;;;;;;0.00;0.00;;;;;;;9.91;59.73;100186.50;5302371;27;20057;-94
2023/12/27 02:58:40;;;;;;;0.00;0.00;;;;;;;10.02;59.73;100188.88;5320152;27;20100;-95
2023/12/27 03:01:06;;;;;;;0.00;0.00;;;;;;;10.14;59.74;100193.78;5320193;27;20756;-96
2023/12/27 03:03:32;;;;;;;0.05;0.05;;;;;;;10.18;59.75;100195.44;5301814;26;20432;-94
2023/12/27 03:05:57;;;;;;;0.00;0.00;;;;;;;10.13;59.74;100203.34;5320927;27;20118;-95
2023/12/27 03:08:22;;;;;;;0.00;0.00;;;;;;;10.10;59.74;100216.41;5319948;27;20182;-94
2023/12/27 03:10:48;;;;;;;0.00;0.00;;;;;;;10.08;59.73;100214.72;5301284;27;26889;-94
2023/12/27 03:13:13;;;;;;;0.03;0.03;;;;;;;10.15;59.74;100213.69;5301951;27;20103;-95
2023/12/27 03:15:39;;;;;;;0.75;0.20;;;;;;;10.08;59.73;100215.59;5302176;27;20142;-95
2023/12/27 03:18:04;;;;;;;0.15;0.15;;;;;;;10.12;59.74;100219.81;5302088;26;20072;-95
2023/12/27 03:20:30;;;;;;;0.00;0.00;;;;;;;9.97;59.73;100227.13;5320705;27;20090;-95
2023/12/27 03:22:55;;;;;;;0.05;0.00;;;;;;;9.82;59.72;100229.16;5327627;27;20118;-95
2023/12/27 03:25:21;;;;;;;0.00;0.00;;;;;;;9.69;59.71;100238.09;5301778;27;21641;-95
2023/12/27 03:27:46;;;;;;;0.00;0.00;;;;;;;9.81;59.73;100250.00;5320930;27;20496;-93
2023/12/27 03:30:12;;;;;;;0.00;0.00;;;;;;;9.88;59.73;100248.97;5320345;27;20108;-95
2023/12/27 03:32:37;;;;;;;0.00;0.00;;;;;;;9.95;59.73;100244.53;5320052;27;20120;-94
2023/12/27 03:35:03;;;;;;;0.10;0.10;;;;;;;9.62;59.72;100244.31;5320847;27;20091;-95
2023/12/27 03:37:29;;;;;;;1.95;0.75;;;;;;;9.70;59.72;100251.94;5302030;27;20079;-94
2023/12/27 03:39:54;;;;;;;0.00;0.00;;;;;;;9.51;59.71;100249.75;5301880;27;20092;-94
2023/12/27 03:42:19;;;;;;;0.00;0.00;;;;;;;9.59;59.72;100249.59;5320368;27;23775;-94
2023/12/27 03:44:47;;;;;;;0.00;0.00;;;;;;;9.54;59.71;100251.41;5320607;27;20065;-96
2023/12/27 03:47:12;;;;;;;0.10;0.10;;;;;;;9.45;59.71;100257.63;5321150;26;20074;-94
2023/12/27 03:49:38;;;;;;;0.00;0.00;;;;;;;9.53;59.71;100262.69;5320638;27;20173;-93
2023/12/27 03:52:04;;;;;;;0.00;0.00;;;;;;;9.56;59.71;100261.78;5320150;27;20143;-94
2023/12/27 03:54:29;;;;;;;0.00;0.00;;;;;;;9.50;59.71;100268.81;5320827;27;20075;-95
2023/12/27 03:56:54;;;;;;;0.00;0.00;;;;;;;9.23;59.69;100278.00;5302061;27;20087;-95
2023/12/27 03:59:20;;;;;;;0.00;0.00;;;;;;;9.35;59.70;100274.28;5320840;27;20366;-95
2023/12/27 04:01:45;;;;;;;0.00;0.00;;;;;;;9.42;59.71;100280.22;5301987;27;20116;-94
2023/12/27 04:04:13;;;;;;;0.00;0.00;;;;;;;9.21;59.69;100281.47;5320709;27;20079;-94
2023/12/27 04:06:38;;;;;;;0.00;0.00;;;;;;;9.23;59.69;100284.94;5320778;26;20068;-95
2023/12/27 04:09:04;;;;;;;0.10;0.00;;;;;;;9.25;59.69;100283.16;5320388;27;20143;-94
2023/12/27 04:11:29;;;;;;;0.00;0.00;;;;;;;9.28;59.70;100293.50;5319894;27;20474;-96
2023/12/27 04:13:54;;;;;;;0.00;0.00;;;;;;;9.06;59.69;100290.41;5320234;27;20086;-94
2023/12/27 04:16:20;;;;;;;0.00;0.00;;;;;;;8.95;59.67;100292.31;5319606;27;26181;-94
2023/12/27 04:18:45;;;;;;;0.00;0.00;;;;;;;9.29;59.70;100283.94;5320372;27;20152;-93
2023/12/27 04:21:11;;;;;;;0.00;0.00;;;;;;;8.93;59.68;100281.09;5327440;27;20121;-95
2023/12/27 04:23:36;;;;;;;0.00;0.00;;;;;;;8.97;59.69;100287.09;5320900;26;20151;-94
2023/12/27 04:26:02;;;;;;;0.00;0.00;;;;;;;9.00;59.68;100289.66;5301958;27;20441;-94
2023/12/27 04:28:27;;;;;;;0.00;0.00;;;;;;;9.06;59.68;100295.59;5320021;26;20110;-93
2023/12/27 04:30:53;;;;;;;0.28;0.17;;;;;;;9.22;59.69;100291.84;5319263;27;20068;-94
2023/12/27 04:33:18;;;;;;;0.00;0.00;;;;;;;8.85;59.67;100302.00;5320259;27;20080;-94
2023/12/27 04:35:44;;;;;;;0.00;0.00;;;;;;;8.88;59.67;100295.91;5319742;27;20116;-94
2023/12/27 04:38:13;;;;;;;0.00;0.00;;;;;;;8.81;59.66;100307.28;5320121;27;20144;-94
2023/12/27 04:40:42;;;;;;;0.00;0.00;;;;;;;8.88;59.67;100296.75;5321089;26;20146;-94
2023/12/27 04:43:07;;;;;;;0.00;0.00;;;;;;;8.83;59.67;100290.78;5302311;27;20133;-93
2023/12/27 04:45:33;;;;;;;0.00;0.00;;;;;;;8.89;59.68;100298.47;5320246;27;20072;-94
2023/12/27 04:47:58;;;;;;;0.00;0.00;;;;;;;8.59;59.66;100302.41;5301353;27;29456;-94
2023/12/27 04:50:24;;;;;;;0.00;0.00;;;;;;;8.56;59.65;100310.25;5320156;27;20091;-93
2023/12/27 04:52:49;;;;;;;0.00;0.00;;;;;;;8.78;59.67;100321.16;5319967;27;20095;-94
2023/12/27 04:55:14;;;;;;;0.00;0.00;;;;;;;8.76;59.67;100320.34;5319740;27;20080;-94
2023/12/27 04:57:40;;;;;;;0.00;0.00;;;;;;;8.70;59.66;100323.00;5320115;27;22050;-93
2023/12/27 05:00:07;;;;;;;0.00;0.00;;;;;;;8.66;59.67;100323.94;5319689;27;20484;-94
2023/12/27 05:02:32;;;;;;;0.00;0.00;;;;;;;8.76;59.67;100330.72;5320988;26;20120;-94
2023/12/27 05:04:58;;;;;;;0.10;0.10;;;;;;;8.68;59.67;100335.16;5320118;27;20115;-94
2023/12/27 05:07:23;;;;;;;0.00;0.00;;;;;;;8.81;59.66;100334.09;5319507;27;20120;-94
2023/12/27 05:09:48;;;;;;;0.00;0.00;;;;;;;8.73;59.66;100335.94;5319584;27;25912;-94
2023/12/27 05:12:14;;;;;;;0.00;0.00;;;;;;;8.71;59.66;100337.69;5319419;27;21411;-94
2023/12/27 05:14:39;;;;;;;0.00;0.00;;;;;;;8.72;59.67;100347.19;5319674;27;20100;-94
2023/12/27 05:17:05;;;;;;;0.20;0.20;;;;;;;8.65;59.66;100350.75;5320374;27;20135;-93
2023/12/27 05:19:30;;;;;;;0.55;0.32;;;;;;;8.66;59.66;100356.81;5300657;27;23474;-94
2023/12/27 05:21:55;;;;;;;0.00;0.00;;;;;;;8.56;59.65;100353.50;5326967;27;20115;-94
2023/12/27 05:24:21;;;;;;;0.00;0.00;;;;;;;8.65;59.66;100368.94;5301766;27;20112;-95
2023/12/27 05:26:46;;;;;;;0.00;0.00;;;;;;;8.57;59.65;100366.44;5319483;27;20084;-94
2023/12/27 05:29:12;;;;;;;0.00;0.00;;;;;;;8.61;59.66;100357.75;5319948;27;20080;-95
2023/12/27 05:31:37;;;;;;;0.00;0.00;;;;;;;8.58;59.65;100367.31;5319367;27;21126;-95
2023/12/27 05:34:02;;;;;;;0.00;0.00;;;;;;;8.56;59.65;100375.13;5301437;27;20095;-94
2023/12/27 05:36:28;;;;;;;0.00;0.00;;;;;;;8.70;59.66;100369.72;5319541;27;20483;-94
2023/12/27 05:38:53;;;;;;;0.00;0.00;;;;;;;8.61;59.66;100362.06;5319900;27;20131;-94
2023/12/27 05:41:24;;;;;;;0.00;0.00;;;;;;;8.43;59.64;100370.09;5319721;27;20376;-95
2023/12/27 05:43:50;;;;;;;0.00;0.00;;;;;;;8.42;59.64;100381.34;5302147;27;20060;-94
2023/12/27 05:46:15;;;;;;;0.00;0.00;;;;;;;8.49;59.65;100372.59;5319784;27;20120;-94
2023/12/27 05:48:40;;;;;;;0.00;0.00;;;;;;;8.48;59.65;100378.69;5319255;27;28263;-94
2023/12/27 05:51:06;;;;;;;0.00;0.00;;;;;;;8.55;59.65;100383.78;5319567;27;20409;-94
2023/12/27 05:53:31;;;;;;;0.00;0.00;;;;;;;8.45;59.65;100387.38;5319363;27;20048;-94
2023/12/27 05:55:57;;;;;;;0.00;0.00;;;;;;;8.42;59.65;100396.94;5321176;27;20325;-94
2023/12/27 05:58:22;;;;;;;0.00;0.00;;;;;;;8.35;59.64;100397.91;5301549;27;20080;-94
2023/12/27 06:00:48;;;;;;;0.00;0.00;;;;;;;8.43;59.64;100409.03;5302650;27;20395;-94
2023/12/27 06:03:13;;;;;;;0.00;0.00;;;;;;;8.36;59.64;100412.56;5320317;27;20069;-94
2023/12/27 06:05:40;;;;;;;0.00;0.00;;;;;;;8.22;59.63;100407.50;5320653;27;20167;-93
2023/12/27 06:08:05;;;;;;;0.00;0.00;;;;;;;8.16;59.63;100420.56;5320944;26;20110;-94
2023/12/27 06:10:31;;;;;;;0.00;0.00;;;;;;;7.85;59.62;100417.44;5320505;27;20056;-95
2023/12/27 06:12:57;;;;;;;0.43;0.37;;;;;;;7.67;59.60;100421.94;5320520;27;20064;-94
2023/12/27 06:15:22;;;;;;;0.00;0.00;;;;;;;7.69;59.60;100429.69;5321546;27;20069;-94
2023/12/27 06:17:48;;;;;;;0.00;0.00;;;;;;;7.44;59.59;100431.62;5320372;27;20148;-94
2023/12/27 06:20:13;;;;;;;0.45;0.37;;;;;;;7.43;59.60;100432.50;5324408;27;20056;-92
2023/12/27 06:22:39;;;;;;;0.08;0.08;;;;;;;7.47;59.60;100436.78;5305444;27;20469;-94
2023/12/27 06:25:05;;;;;;;0.10;0.10;;;;;;;7.43;59.59;100437.69;5320533;27;20110;-94
2023/12/27 06:27:30;;;;;;;0.00;0.00;;;;;;;7.35;59.59;100444.66;5302633;27;20064;-93
2023/12/27 06:29:56;;;;;;;0.00;0.00;;;;;;;7.38;59.58;100440.31;5320701;27;20146;-95
2023/12/27 06:32:22;;;;;;;0.00;0.00;;;;;;;7.21;59.58;100449.94;5320765;27;20134;-94
2023/12/27 06:34:47;;;;;;;0.30;0.30;;;;;;;7.12;59.58;100449.16;5320821;26;20380;-94
2023/12/27 06:37:13;;;;;;;0.00;0.00;;;;;;;7.13;59.58;100453.47;5321850;27;20072;-94
2023/12/27 06:39:38;;;;;;;0.08;0.08;;;;;;;7.11;59.58;100465.56;5302186;27;20514;-94
2023/12/27 06:42:04;;;;;;;0.57;0.57;;;;;;;6.95;59.57;100468.22;5320724;27;20071;-94
2023/12/27 06:44:29;;;;;;;5.93;1.20;;;;;;;6.93;59.56;100482.06;5320756;27;20080;-95
2023/12/27 06:46:54;;;;;;;0.00;0.00;;;;;;;6.90;59.56;100490.69;5320748;27;20149;-93
2023/12/27 06:49:20;;;;;;;0.37;0.37;;;;;;;7.06;59.57;100501.81;5301611;27;22276;-94
2023/12/27 06:51:45;;;;;;;0.50;0.50;;;;;;;7.05;59.57;100500.94;5320320;27;20087;-94
2023/12/27 06:54:11;;;;;;;0.13;0.08;;;;;;;7.16;59.57;100508.66;5301764;27;22053;-93
2023/12/27 06:56:38;;;;;;;0.98;0.25;;;;;;;7.01;59.56;100511.34;5320162;27;20178;-94
2023/12/27 06:59:04;;;;;;;0.00;0.00;;;;;;;6.88;59.56;100526.06;5321944;26;20616;-94
2023/12/27 07:01:29;;;;;;;1.40;1.08;;;;;;;6.86;59.56;100526.91;5302215;26;20314;-94
2023/12/27 07:03:55;;;;;;;0.00;0.00;;;;;;;6.85;59.56;100530.38;5320534;26;20116;-93
2023/12/27 07:06:20;;;;;;;0.00;0.00;;;;;;;6.78;59.55;100529.56;5320330;27;20092;-94
2023/12/27 07:08:46;;;;;;;0.47;0.47;;;;;;;6.97;59.57;100535.50;5320390;27;20533;-93
2023/12/27 07:11:18;;;;;;;1.25;1.20;;;;;;;7.01;59.56;100525.13;5320317;27;20100;-94
2023/12/27 07:13:46;;;;;;;0.88;0.88;;;;;;;6.96;59.57;100529.47;5320906;26;20752;-93
2023/12/27 07:16:12;;;;;;;1.90;1.42;;;;;;;7.22;59.58;100520.72;5320500;26;20082;-94
2023/12/27 07:18:38;;;;;;;3.97;1.75;;;;;;;7.17;59.57;100525.91;5320913;26;20455;-94
2023/12/27 07:21:05;;;;;;;1.83;1.70;;;;;;;7.10;59.58;100537.19;5327380;27;20084;-93
2023/12/27 07:23:30;;;;;;;0.00;0.00;;;;;;;6.85;59.56;100544.19;5302477;26;20122;-94
2023/12/27 07:25:56;;;;;;;0.22;0.20;;;;;;;6.85;59.56;100551.94;5320351;27;20112;-95
2023/12/27 07:28:21;;;;;;;0.00;0.00;;;;;;;6.96;59.57;100559.69;5320029;27;20124;-93
2023/12/27 07:30:46;;;;;;;0.70;0.28;;;;;;;7.05;59.58;100564.81;5320240;27;20154;-95
2023/12/27 07:33:15;;;;;;;0.40;0.32;;;;;;;7.11;59.58;100558.75;5302200;27;20081;-93
2023/12/27 07:35:42;;;;;;;0.70;0.70;;;;;;;7.18;59.58;100557.84;5303361;27;20064;-93
2023/12/27 07:38:08;;;;;;;0.70;0.68;;;;;;;7.17;59.57;100564.75;5320357;26;20074;-93
2023/12/27 07:40:34;;;;;;;0.03;0.03;;;;;;;7.39;59.58;100565.50;5320200;26;20060;-94
2023/12/27 07:43:02;;;;;;;1.30;1.17;;;;;;;7.59;59.60;100573.16;5302850;27;20481;-94
2023/12/27 07:45:27;;;;;;;1.87;1.27;;;;;;;7.80;59.61;100567.78;5320440;26;20065;-93
2023/12/27 07:47:53;;;;;;;0.00;0.00;;;;;;;7.71;59.61;100578.22;5302246;27;20431;-95
2023/12/27 07:50:18;;;;;;;0.65;0.65;;;;;;;7.77;59.61;100575.59;5319554;27;24300;-94
2023/12/27 07:52:43;;;;;;;0.08;0.08;;;;;;;7.89;59.62;100583.28;5320400;27;20104;-94
2023/12/27 07:55:09;;;;;;;0.10;0.00;;;;;;;8.06;59.62;100585.75;5320487;27;20089;-94
2023/12/27 07:57:34;;;;;;;0.00;0.00;;;;;;;7.93;59.62;100590.16;5302599;27;20135;-94
2023/12/27 08:00:00;;;;;;;0.10;0.10;;;;;;;7.95;59.62;100590.16;5301606;27;20476;-94
2023/12/27 08:02:25;;;;;;;0.22;0.10;;;;;;;8.08;59.64;100591.78;5320249;27;20714;-94
2023/12/27 08:04:50;;;;;;;2.37;1.37;;;;;;;8.14;59.63;100598.66;5320515;27;20088;-94
2023/12/27 08:07:16;;;;;;;0.00;0.00;;;;;;;8.54;59.66;100614.75;5302138;27;20407;-95
2023/12/27 08:09:42;;;;;;;0.00;0.00;;;;;;;8.62;59.66;100610.31;5320283;27;20053;-95
2023/12/27 08:12:08;;;;;;;0.47;0.47;;;;;;;8.81;59.66;100611.00;5321149;27;20075;-94
2023/12/27 08:14:33;;;;;;;0.10;0.10;;;;;;;8.81;59.66;100606.66;5320533;27;20113;-95
2023/12/27 08:16:58;;;;;;;0.10;0.10;;;;;;;8.73;59.65;100611.06;5301725;27;20131;-94
2023/12/27 08:19:24;;;;;;;0.00;0.00;;;;;;;8.93;59.67;100616.03;5320504;27;20139;-92
2023/12/27 08:21:49;;;;;;;0.00;0.00;;;;;;;9.23;59.69;100597.50;5326827;27;20152;-94
2023/12/27 08:24:15;;;;;;;0.10;0.10;;;;;;;9.35;59.71;100600.81;5319916;27;20089;-94
2023/12/27 08:26:40;;;;;;;0.22;0.13;;;;;;;9.39;59.69;100605.06;5320228;27;20064;-95
2023/12/27 08:29:05;;;;;;;0.03;0.03;;;;;;;9.49;59.71;100602.34;5320016;27;20083;-94
2023/12/27 08:31:31;;;;;;;0.10;0.10;;;;;;;9.61;59.71;100606.50;5301539;27;20136;-95
2023/12/27 08:33:59;;;;;;;0.70;0.70;;;;;;;9.45;59.70;100607.59;5319790;27;21600;-95
2023/12/27 08:36:25;;;;;;;0.00;0.00;;;;;;;9.59;59.71;100617.81;5302354;27;20039;-94
2023/12/27 08:38:50;;;;;;;0.30;0.30;;;;;;;9.48;59.70;100624.03;5320153;26;20068;-95
2023/12/27 08:41:16;;;;;;;0.10;0.10;;;;;;;9.52;59.71;100638.69;5320359;27;20123;-94
2023/12/27 08:43:42;;;;;;;0.28;0.28;;;;;;;9.56;59.71;100638.62;5320507;27;20116;-95
2023/12/27 08:46:11;;;;;;;0.45;0.43;;;;;;;9.71;59.71;100644.50;5320305;26;20172;-95
2023/12/27 08:48:37;;;;;;;0.00;0.00;;;;;;;9.82;59.73;100647.78;5320589;26;20478;-94
2023/12/27 08:51:02;;;;;;;0.00;0.00;;;;;;;10.20;59.75;100650.69;5320214;27;20060;-94
2023/12/27 08:53:29;;;;;;;0.10;0.10;;;;;;;10.31;59.75;100644.44;5320400;26;20064;-94
2023/12/27 08:55:54;;;;;;;0.00;0.00;;;;;;;10.38;59.75;100643.44;5320730;26;20070;-95
2023/12/27 08:58:20;;;;;;;0.00;0.00;;;;;;;10.39;59.75;100641.72;5320333;27;20445;-94
2023/12/27 09:00:45;;;;;;;0.00;0.00;;;;;;;10.46;59.75;100643.34;5320377;27;20065;-94
2023/12/27 09:03:11;;;;;;;0.00;0.00;;;;;;;10.58;59.77;100653.53;5319894;27;20392;-95
2023/12/27 09:05:36;;;;;;;0.00;0.00;;;;;;;10.64;59.77;100665.56;5301719;27;20119;-94
2023/12/27 09:08:02;;;;;;;0.00;0.00;;;;;;;10.70;59.78;100670.69;5320082;27;20123;-94
2023/12/27 09:10:27;;;;;;;0.00;0.00;;;;;;;10.80;59.77;100677.44;5320589;26;20454;-96
2023/12/27 09:12:53;;;;;;;0.00;0.00;;;;;;;10.86;59.78;100668.66;5320303;26;20094;-95
2023/12/27 09:15:18;;;;;;;0.00;0.00;;;;;;;10.91;59.78;100674.66;5301332;27;20849;-94
2023/12/27 09:17:44;;;;;;;0.00;0.00;;;;;;;10.95;59.79;100687.59;5320148;27;20064;-94
2023/12/27 09:20:09;;;;;;;0.00;0.00;;;;;;;10.92;59.79;100672.03;5327761;27;20125;-96
2023/12/27 09:22:35;;;;;;;0.32;0.32;;;;;;;10.97;59.79;100661.50;5320356;26;20092;-95
2023/12/27 09:25:01;;;;;;;0.00;0.00;;;;;;;10.95;59.79;100668.50;5302185;27;20080;-95
2023/12/27 09:27:26;;;;;;;0.35;0.35;;;;;;;10.98;59.78;100671.03;5320800;27;20100;-95
2023/12/27 09:29:52;;;;;;;0.22;0.22;;;;;;;11.03;59.79;100675.25;5321010;27;20100;-95
2023/12/27 09:32:18;;;;;;;0.10;0.10;;;;;;;11.06;59.79;100680.41;5302704;27;20068;-94
2023/12/27 09:34:43;;;;;;;0.00;0.00;;;;;;;10.96;59.79;100678.03;5319727;26;20060;-95
2023/12/27 09:37:08;;;;;;;0.00;0.00;;;;;;;10.95;59.79;100687.59;5320319;27;20376;-94
2023/12/27 09:39:34;;;;;;;0.65;0.47;;;;;;;10.95;59.79;100681.53;5303335;27;20104;-94
2023/12/27 09:41:59;;;;;;;0.25;0.25;;;;;;;11.16;59.80;100680.25;5321230;27;20127;-95
2023/12/27 09:44:25;;;;;;;0.15;0.15;;;;;;;11.09;59.80;100676.88;5321976;27;20389;-96
2023/12/27 09:46:50;;;;;;;0.00;0.00;;;;;;;10.92;59.79;100673.78;5320929;27;20409;-95
2023/12/27 09:49:16;;;;;;;0.00;0.00;;;;;;;11.00;59.79;100672.72;5320934;26;20113;-94
2023/12/27 09:51:41;;;;;;;0.20;0.20;;;;;;;11.20;59.80;100669.75;5320993;27;20070;-95
2023/12/27 09:54:07;;;;;;;0.00;0.00;;;;;;;11.24;59.81;100678.34;5320940;27;20076;-94
2023/12/27 09:56:32;;;;;;;0.00;0.00;;;;;;;11.23;59.80;100671.41;5302118;27;23375;-94
2023/12/27 09:59:04;;;;;;;0.00;0.00;;;;;;;11.29;59.80;100666.06;5321057;27;20116;-94
2023/12/27 10:01:30;;;;;;;0.15;0.15;;;;;;;11.25;59.81;100673.09;5303346;27;20077;-94
2023/12/27 10:04:04;;;;;;;0.00;0.00;;;;;;;11.15;59.79;100675.94;5302614;27;20075;-95
2023/12/27 10:06:48;;;;;;;0.00;0.00;;;;;;;11.21;59.80;100668.84;5303210;27;20075;-94
2023/12/27 10:09:14;;;;;;;0.30;0.10;;;;;;;11.14;59.79;100664.66;5321629;27;20068;-95
2023/12/27 10:11:41;;;;;;;0.00;0.00;;;;;;;11.12;59.79;100665.53;5303038;27;20102;-94
2023/12/27 10:14:26;;;;;;;0.52;0.52;;;;;;;11.17;59.80;100662.00;5303122;27;20080;-94
2023/12/27 10:16:51;;;;;;;0.00;0.00;;;;;;;11.15;59.79;100661.16;5321694;26;20132;-94
2023/12/27 10:19:36;;;;;;;0.00;0.00;;;;;;;11.28;59.81;100653.94;5308357;27;23784;-95
2023/12/27 10:22:02;;;;;;;0.08;0.08;;;;;;;11.28;59.81;100653.94;5320878;27;20079;-95
2023/12/27 10:24:27;;;;;;;0.00;0.00;;;;;;;11.17;59.80;100656.78;5302236;27;20128;-93
2023/12/27 10:26:57;;;;;;;0.00;0.00;;;;;;;11.20;59.80;100661.06;5320716;27;20064;-94
2023/12/27 10:29:23;;;;;;;0.20;0.20;;;;;;;11.24;59.80;100657.50;5321098;26;21175;-94
2023/12/27 10:31:49;;;;;;;0.00;0.00;;;;;;;11.29;59.80;100655.66;5320945;27;20075;-94
2023/12/27 10:34:14;;;;;;;3.00;0.70;;;;;;;11.36;59.81;100663.34;5320169;27;20052;-95
2023/12/27 10:39:24;;;;;;;5.87;2.62;;;;;;;11.56;59.82;100657.69;5321235;27;20127;-94
2023/12/27 10:41:52;;;;;;;0.85;0.85;;;;;;;11.69;59.83;100661.75;5320122;27;20480;-94
2023/12/27 10:44:19;;;;;;;1.40;0.95;;;;;;;11.63;59.82;100661.03;5320308;26;20052;-94
2023/12/27 10:46:44;;;;;;;0.00;0.00;;;;;;;11.63;59.82;100659.28;5321065;26;20052;-95
2023/12/27 10:49:12;;;;;;;2.20;1.35;;;;;;;11.67;59.83;100660.94;5320804;27;20095;-93
2023/12/27 10:51:38;;;;;;;1.65;1.55;;;;;;;11.79;59.83;100667.63;5302738;26;20072;-94
2023/12/27 10:54:04;;;;;;;1.12;1.00;;;;;;;11.66;59.83;100666.19;5321127;27;20096;-95
2023/12/27 10:56:35;;;;;;;0.47;0.47;;;;;;;11.64;59.82;100666.22;5321091;27;20052;-95
2023/12/27 10:59:01;;;;;;;0.30;0.30;;;;;;;11.64;59.82;100666.22;5302879;27;20037;-94
2023/12/27 11:01:26;;;;;;;0.17;0.13;;;;;;;11.80;59.84;100663.28;5320900;27;20405;-94
2023/12/27 11:03:52;;;;;;;0.03;0.00;;;;;;;11.81;59.83;100660.63;5320648;27;20084;-94
2023/12/27 11:06:17;;;;;;;0.00;0.00;;;;;;;11.89;59.83;100658.72;5321099;27;20390;-95
2023/12/27 11:08:44;;;;;;;0.10;0.10;;;;;;;11.65;59.82;100649.66;5320617;27;20504;-95
2023/12/27 11:11:10;;;;;;;0.00;0.00;;;;;;;11.67;59.83;100649.63;5302820;26;20132;-95
2023/12/27 11:13:35;;;;;;;0.43;0.37;;;;;;;11.72;59.83;100646.91;5320709;27;20091;-94
2023/12/27 11:16:01;;;;;;;0.32;0.32;;;;;;;11.63;59.83;100638.41;5320303;26;20480;-95
2023/12/27 11:18:26;;;;;;;0.00;0.00;;;;;;;11.54;59.82;100629.91;5324371;27;20108;-95
2023/12/27 11:20:52;;;;;;;0.00;0.00;;;;;;;11.63;59.82;100633.19;5302148;27;20073;-95
2023/12/27 11:23:17;;;;;;;0.00;0.00;;;;;;;11.68;59.83;100633.94;5320638;27;20080;-94
2023/12/27 11:25:43;;;;;;;0.00;0.00;;;;;;;11.72;59.83;100631.28;5320717;27;20084;-94